sensor_id;sensor_type;location;lat;lon;timestamp;temperature;humidity
13569;DHT22;6856;51.460;7.158;2022-12-13T00:02:06;0.90;59.90
13569;DHT22;6856;51.460;7.158;2022-12-13T00:04:41;0.90;59.70
13569;DHT22;6856;51.460;7.158;2022-12-13T00:07:15;0.80;59.60
13569;DHT22;6856;51.460;7.158;2022-12-13T00:09:50;0.80;59.30
13569;DHT22;6856;51.460;7.158;2022-12-13T00:12:27;0.80;59.50
13569;DHT22;6856;51.460;7.158;2022-12-13T00:15:00;0.70;59.80
13569;DHT22;6856;51.460;7.158;2022-12-13T00:17:34;0.70;59.30
13569;DHT22;6856;51.460;7.158;2022-12-13T00:20:08;0.70;59.60
13569;DHT22;6856;51.460;7.158;2022-12-13T00:22:43;0.70;59.60
13569;DHT22;6856;51.460;7.158;2022-12-13T00:25:19;0.60;59.50
13569;DHT22;6856;51.460;7.158;2022-12-13T00:27:53;0.60;59.30
13569;DHT22;6856;51.460;7.158;2022-12-13T00:30:27;0.80;59.20
13569;DHT22;6856;51.460;7.158;2022-12-13T00:33:05;0.80;59.60
13569;DHT22;6856;51.460;7.158;2022-12-13T00:35:39;0.60;59.50
13569;DHT22;6856;51.460;7.158;2022-12-13T00:38:14;0.60;59.70
13569;DHT22;6856;51.460;7.158;2022-12-13T00:40:49;0.60;59.30
13569;DHT22;6856;51.460;7.158;2022-12-13T00:43:23;0.60;59.60
13569;DHT22;6856;51.460;7.158;2022-12-13T00:45:57;0.50;59.30
13569;DHT22;6856;51.460;7.158;2022-12-13T00:48:33;0.50;58.50
13569;DHT22;6856;51.460;7.158;2022-12-13T00:51:07;0.50;59.10
13569;DHT22;6856;51.460;7.158;2022-12-13T00:53:51;0.50;59.40
13569;DHT22;6856;51.460;7.158;2022-12-13T00:56:30;0.40;59.50
13569;DHT22;6856;51.460;7.158;2022-12-13T00:59:08;0.50;59.40
13569;DHT22;6856;51.460;7.158;2022-12-13T01:01:46;0.40;59.50
13569;DHT22;6856;51.460;7.158;2022-12-13T01:04:20;0.40;59.10
13569;DHT22;6856;51.460;7.158;2022-12-13T01:06:56;0.40;59.50
13569;DHT22;6856;51.460;7.158;2022-12-13T01:09:33;0.30;58.50
13569;DHT22;6856;51.460;7.158;2022-12-13T01:12:09;0.30;59.10
13569;DHT22;6856;51.460;7.158;2022-12-13T01:14:43;0.30;59.30
13569;DHT22;6856;51.460;7.158;2022-12-13T01:17:22;0.20;59.40
13569;DHT22;6856;51.460;7.158;2022-12-13T01:19:56;0.20;59.20
13569;DHT22;6856;51.460;7.158;2022-12-13T01:22:29;0.20;59.30
13569;DHT22;6856;51.460;7.158;2022-12-13T01:25:03;0.30;59.60
13569;DHT22;6856;51.460;7.158;2022-12-13T01:27:39;0.20;59.90
13569;DHT22;6856;51.460;7.158;2022-12-13T01:30:18;0.20;59.50
13569;DHT22;6856;51.460;7.158;2022-12-13T01:32:52;0.20;59.50
13569;DHT22;6856;51.460;7.158;2022-12-13T01:35:26;0.10;58.90
13569;DHT22;6856;51.460;7.158;2022-12-13T01:38:00;0.10;59.50
13569;DHT22;6856;51.460;7.158;2022-12-13T01:40:48;0.10;59.60
13569;DHT22;6856;51.460;7.158;2022-12-13T01:46:39;0.10;59.80
13569;DHT22;6856;51.460;7.158;2022-12-13T01:49:14;0.10;59.30
13569;DHT22;6856;51.460;7.158;2022-12-13T01:51:57;0.30;59.70
13569;DHT22;6856;51.460;7.158;2022-12-13T01:54:41;0.10;59.70
13569;DHT22;6856;51.460;7.158;2022-12-13T01:57:20;0.00;59.60
13569;DHT22;6856;51.460;7.158;2022-12-13T02:00:00;0.20;59.70
13569;DHT22;6856;51.460;7.158;2022-12-13T02:02:38;0.10;59.10
13569;DHT22;6856;51.460;7.158;2022-12-13T02:05:17;0.00;59.70
13569;DHT22;6856;51.460;7.158;2022-12-13T02:07:58;0.00;59.70
13569;DHT22;6856;51.460;7.158;2022-12-13T02:10:34;0.00;59.50
13569;DHT22;6856;51.460;7.158;2022-12-13T02:13:09;-0.10;59.30
13569;DHT22;6856;51.460;7.158;2022-12-13T02:15:51;-0.10;59.30
13569;DHT22;6856;51.460;7.158;2022-12-13T02:18:46;0.00;59.60
13569;DHT22;6856;51.460;7.158;2022-12-13T02:21:39;-0.10;59.60
13569;DHT22;6856;51.460;7.158;2022-12-13T02:24:46;-0.20;59.00
13569;DHT22;6856;51.460;7.158;2022-12-13T02:27:49;-0.20;59.40
13569;DHT22;6856;51.460;7.158;2022-12-13T02:31:00;-0.30;59.40
13569;DHT22;6856;51.460;7.158;2022-12-13T02:33:53;-0.30;59.50
13569;DHT22;6856;51.460;7.158;2022-12-13T02:36:40;-0.30;59.30
13569;DHT22;6856;51.460;7.158;2022-12-13T02:39:29;-0.40;59.50
13569;DHT22;6856;51.460;7.158;2022-12-13T02:42:11;-0.40;59.60
13569;DHT22;6856;51.460;7.158;2022-12-13T02:44:56;-0.40;59.70
13569;DHT22;6856;51.460;7.158;2022-12-13T02:47:40;-0.30;59.80
13569;DHT22;6856;51.460;7.158;2022-12-13T02:50:18;-0.40;59.70
13569;DHT22;6856;51.460;7.158;2022-12-13T02:52:54;-0.40;59.50
13569;DHT22;6856;51.460;7.158;2022-12-13T02:55:32;-0.50;59.70
13569;DHT22;6856;51.460;7.158;2022-12-13T02:58:11;-0.50;59.20
13569;DHT22;6856;51.460;7.158;2022-12-13T03:00:52;-0.30;60.00
13569;DHT22;6856;51.460;7.158;2022-12-13T03:03:44;-0.50;59.70
13569;DHT22;6856;51.460;7.158;2022-12-13T03:06:33;-0.50;59.40
13569;DHT22;6856;51.460;7.158;2022-12-13T03:09:25;-0.50;59.70
13569;DHT22;6856;51.460;7.158;2022-12-13T03:12:18;-0.50;59.70
13569;DHT22;6856;51.460;7.158;2022-12-13T03:15:23;-0.50;59.70
13569;DHT22;6856;51.460;7.158;2022-12-13T03:18:12;-0.50;59.60
13569;DHT22;6856;51.460;7.158;2022-12-13T03:20:50;-0.60;59.50
13569;DHT22;6856;51.460;7.158;2022-12-13T03:23:28;-0.60;59.70
13569;DHT22;6856;51.460;7.158;2022-12-13T03:26:05;-0.60;59.60
13569;DHT22;6856;51.460;7.158;2022-12-13T03:28:42;-0.60;59.70
13569;DHT22;6856;51.460;7.158;2022-12-13T03:31:23;-0.60;59.80
13569;DHT22;6856;51.460;7.158;2022-12-13T03:33:58;-0.60;59.50
13569;DHT22;6856;51.460;7.158;2022-12-13T03:36:33;-0.60;59.20
13569;DHT22;6856;51.460;7.158;2022-12-13T03:39:07;-0.50;59.30
13569;DHT22;6856;51.460;7.158;2022-12-13T03:41:50;-0.60;59.40
13569;DHT22;6856;51.460;7.158;2022-12-13T03:44:24;-0.60;59.60
13569;DHT22;6856;51.460;7.158;2022-12-13T03:47:05;-0.60;59.50
13569;DHT22;6856;51.460;7.158;2022-12-13T03:49:38;-0.60;59.50
13569;DHT22;6856;51.460;7.158;2022-12-13T03:52:14;-0.70;59.40
13569;DHT22;6856;51.460;7.158;2022-12-13T03:54:47;-0.60;59.10
13569;DHT22;6856;51.460;7.158;2022-12-13T03:57:22;-0.70;59.10
13569;DHT22;6856;51.460;7.158;2022-12-13T03:59:56;-0.70;59.30
13569;DHT22;6856;51.460;7.158;2022-12-13T04:02:30;-0.70;59.20
13569;DHT22;6856;51.460;7.158;2022-12-13T04:05:05;-0.70;59.40
13569;DHT22;6856;51.460;7.158;2022-12-13T04:07:44;-0.70;59.40
13569;DHT22;6856;51.460;7.158;2022-12-13T04:10:19;-0.80;59.20
13569;DHT22;6856;51.460;7.158;2022-12-13T04:12:58;-0.80;59.50
13569;DHT22;6856;51.460;7.158;2022-12-13T04:15:50;-0.80;59.00
13569;DHT22;6856;51.460;7.158;2022-12-13T04:18:24;-0.70;59.30
13569;DHT22;6856;51.460;7.158;2022-12-13T04:20:58;-0.80;59.00
13569;DHT22;6856;51.460;7.158;2022-12-13T04:23:47;-0.80;59.10
13569;DHT22;6856;51.460;7.158;2022-12-13T04:26:21;-0.80;58.80
13569;DHT22;6856;51.460;7.158;2022-12-13T04:28:58;-0.90;59.20
13569;DHT22;6856;51.460;7.158;2022-12-13T04:31:32;-0.90;59.10
13569;DHT22;6856;51.460;7.158;2022-12-13T04:34:08;-0.90;59.10
13569;DHT22;6856;51.460;7.158;2022-12-13T04:36:42;-0.90;58.40
13569;DHT22;6856;51.460;7.158;2022-12-13T04:39:17;-0.90;59.10
13569;DHT22;6856;51.460;7.158;2022-12-13T04:41:54;-0.90;58.70
13569;DHT22;6856;51.460;7.158;2022-12-13T04:44:28;-0.90;59.20
13569;DHT22;6856;51.460;7.158;2022-12-13T04:47:08;-0.90;59.20
13569;DHT22;6856;51.460;7.158;2022-12-13T04:49:42;-1.00;59.20
13569;DHT22;6856;51.460;7.158;2022-12-13T04:52:20;-1.00;58.80
13569;DHT22;6856;51.460;7.158;2022-12-13T04:54:55;-1.00;58.90
13569;DHT22;6856;51.460;7.158;2022-12-13T04:57:29;-1.00;58.90
13569;DHT22;6856;51.460;7.158;2022-12-13T05:00:17;-1.00;59.10
13569;DHT22;6856;51.460;7.158;2022-12-13T05:02:54;-1.00;58.80
13569;DHT22;6856;51.460;7.158;2022-12-13T05:05:28;-0.80;59.30
13569;DHT22;6856;51.460;7.158;2022-12-13T05:08:03;-1.10;59.00
13569;DHT22;6856;51.460;7.158;2022-12-13T05:10:39;-1.10;59.10
13569;DHT22;6856;51.460;7.158;2022-12-13T05:13:13;-1.10;59.00
13569;DHT22;6856;51.460;7.158;2022-12-13T05:16:02;-1.10;59.00
13569;DHT22;6856;51.460;7.158;2022-12-13T05:18:39;-1.10;59.00
13569;DHT22;6856;51.460;7.158;2022-12-13T05:21:13;-1.20;58.80
13569;DHT22;6856;51.460;7.158;2022-12-13T05:23:46;-1.20;58.70
13569;DHT22;6856;51.460;7.158;2022-12-13T05:26:22;-1.20;59.00
13569;DHT22;6856;51.460;7.158;2022-12-13T05:28:56;-1.20;59.00
13569;DHT22;6856;51.460;7.158;2022-12-13T05:31:31;-1.30;58.80
13569;DHT22;6856;51.460;7.158;2022-12-13T05:34:04;-1.30;58.70
13569;DHT22;6856;51.460;7.158;2022-12-13T05:36:42;-1.30;58.90
13569;DHT22;6856;51.460;7.158;2022-12-13T05:39:15;-1.30;58.80
13569;DHT22;6856;51.460;7.158;2022-12-13T05:42:02;-1.40;58.80
13569;DHT22;6856;51.460;7.158;2022-12-13T05:44:42;-1.40;58.90
13569;DHT22;6856;51.460;7.158;2022-12-13T05:47:15;-1.40;58.90
13569;DHT22;6856;51.460;7.158;2022-12-13T05:49:49;-1.40;58.70
13569;DHT22;6856;51.460;7.158;2022-12-13T05:52:23;-1.40;59.00
13569;DHT22;6856;51.460;7.158;2022-12-13T05:55:02;-1.40;58.90
13569;DHT22;6856;51.460;7.158;2022-12-13T05:57:40;-1.50;58.90
13569;DHT22;6856;51.460;7.158;2022-12-13T06:00:21;-1.50;58.90
13569;DHT22;6856;51.460;7.158;2022-12-13T06:03:01;-1.50;58.90
13569;DHT22;6856;51.460;7.158;2022-12-13T06:05:35;-1.50;58.90
13569;DHT22;6856;51.460;7.158;2022-12-13T06:08:12;-1.50;59.00
13569;DHT22;6856;51.460;7.158;2022-12-13T06:10:57;-1.50;58.90
13569;DHT22;6856;51.460;7.158;2022-12-13T06:13:48;-1.60;59.00
13569;DHT22;6856;51.460;7.158;2022-12-13T06:16:33;-1.60;59.00
13569;DHT22;6856;51.460;7.158;2022-12-13T06:19:09;-1.60;58.70
13569;DHT22;6856;51.460;7.158;2022-12-13T06:21:46;-1.60;58.90
13569;DHT22;6856;51.460;7.158;2022-12-13T06:24:21;-1.60;59.00
13569;DHT22;6856;51.460;7.158;2022-12-13T06:26:56;-1.60;59.10
13569;DHT22;6856;51.460;7.158;2022-12-13T06:29:32;-1.40;58.90
13569;DHT22;6856;51.460;7.158;2022-12-13T06:32:06;-1.70;58.90
13569;DHT22;6856;51.460;7.158;2022-12-13T06:34:39;-1.70;58.00
13569;DHT22;6856;51.460;7.158;2022-12-13T06:37:14;-1.70;59.00
13569;DHT22;6856;51.460;7.158;2022-12-13T06:39:54;-1.70;58.90
13569;DHT22;6856;51.460;7.158;2022-12-13T06:42:28;-1.80;58.70
13569;DHT22;6856;51.460;7.158;2022-12-13T06:45:04;-1.80;58.60
13569;DHT22;6856;51.460;7.158;2022-12-13T06:47:39;-1.80;59.10
13569;DHT22;6856;51.460;7.158;2022-12-13T06:50:12;-1.80;58.90
13569;DHT22;6856;51.460;7.158;2022-12-13T06:52:46;-1.80;58.90
13569;DHT22;6856;51.460;7.158;2022-12-13T06:55:21;-1.80;58.90
13569;DHT22;6856;51.460;7.158;2022-12-13T06:57:57;-1.80;58.80
13569;DHT22;6856;51.460;7.158;2022-12-13T07:00:32;-1.80;58.90
13569;DHT22;6856;51.460;7.158;2022-12-13T07:03:20;-1.90;59.00
13569;DHT22;6856;51.460;7.158;2022-12-13T07:05:54;-1.90;58.90
13569;DHT22;6856;51.460;7.158;2022-12-13T07:08:29;-1.90;59.00
13569;DHT22;6856;51.460;7.158;2022-12-13T07:11:03;-1.90;58.90
13569;DHT22;6856;51.460;7.158;2022-12-13T07:13:40;-1.90;58.60
13569;DHT22;6856;51.460;7.158;2022-12-13T07:16:16;-1.80;59.00
13569;DHT22;6856;51.460;7.158;2022-12-13T07:18:54;-2.00;58.60
13569;DHT22;6856;51.460;7.158;2022-12-13T07:21:35;-2.00;58.50
13569;DHT22;6856;51.460;7.158;2022-12-13T07:24:11;-2.00;58.80
13569;DHT22;6856;51.460;7.158;2022-12-13T07:26:45;-2.00;59.10
13569;DHT22;6856;51.460;7.158;2022-12-13T07:29:20;-2.00;58.90
13569;DHT22;6856;51.460;7.158;2022-12-13T07:31:59;-2.00;58.90
13569;DHT22;6856;51.460;7.158;2022-12-13T07:34:34;-2.00;59.20
13569;DHT22;6856;51.460;7.158;2022-12-13T07:37:09;-2.10;58.90
13569;DHT22;6856;51.460;7.158;2022-12-13T07:40:02;-2.10;58.90
13569;DHT22;6856;51.460;7.158;2022-12-13T07:42:36;-2.10;59.10
13569;DHT22;6856;51.460;7.158;2022-12-13T07:45:16;-2.10;58.90
13569;DHT22;6856;51.460;7.158;2022-12-13T07:47:52;-2.10;59.00
13569;DHT22;6856;51.460;7.158;2022-12-13T07:50:26;-2.10;59.00
13569;DHT22;6856;51.460;7.158;2022-12-13T07:53:09;-2.10;58.90
13569;DHT22;6856;51.460;7.158;2022-12-13T07:55:43;-2.20;59.10
13569;DHT22;6856;51.460;7.158;2022-12-13T07:58:17;-2.20;59.10
13569;DHT22;6856;51.460;7.158;2022-12-13T08:00:51;-2.20;57.80
13569;DHT22;6856;51.460;7.158;2022-12-13T08:03:33;-2.20;59.20
13569;DHT22;6856;51.460;7.158;2022-12-13T08:06:12;-2.20;59.20
13569;DHT22;6856;51.460;7.158;2022-12-13T08:08:46;-2.20;58.80
13569;DHT22;6856;51.460;7.158;2022-12-13T08:11:22;-2.20;59.10
13569;DHT22;6856;51.460;7.158;2022-12-13T08:13:56;-2.20;59.00
13569;DHT22;6856;51.460;7.158;2022-12-13T08:16:30;-2.20;59.10
13569;DHT22;6856;51.460;7.158;2022-12-13T08:19:05;-2.20;58.70
13569;DHT22;6856;51.460;7.158;2022-12-13T08:21:43;-2.20;59.00
13569;DHT22;6856;51.460;7.158;2022-12-13T08:24:28;-2.20;59.00
13569;DHT22;6856;51.460;7.158;2022-12-13T08:27:05;-2.20;59.20
13569;DHT22;6856;51.460;7.158;2022-12-13T08:29:40;-2.20;59.20
13569;DHT22;6856;51.460;7.158;2022-12-13T08:32:14;-2.00;59.20
13569;DHT22;6856;51.460;7.158;2022-12-13T08:34:49;-2.20;59.60
13569;DHT22;6856;51.460;7.158;2022-12-13T08:37:26;-2.20;59.20
13569;DHT22;6856;51.460;7.158;2022-12-13T08:40:00;-2.20;59.40
13569;DHT22;6856;51.460;7.158;2022-12-13T08:42:35;-2.00;59.70
13569;DHT22;6856;51.460;7.158;2022-12-13T08:45:12;-2.10;59.50
13569;DHT22;6856;51.460;7.158;2022-12-13T08:47:47;-2.10;60.40
13569;DHT22;6856;51.460;7.158;2022-12-13T08:50:22;-2.10;60.10
13569;DHT22;6856;51.460;7.158;2022-12-13T08:52:56;-2.10;60.20
13569;DHT22;6856;51.460;7.158;2022-12-13T08:55:30;-2.00;60.80
13569;DHT22;6856;51.460;7.158;2022-12-13T08:58:05;-2.00;60.50
13569;DHT22;6856;51.460;7.158;2022-12-13T09:00:39;-1.90;61.20
13569;DHT22;6856;51.460;7.158;2022-12-13T09:03:14;-1.90;60.80
13569;DHT22;6856;51.460;7.158;2022-12-13T09:05:49;-1.80;61.60
13569;DHT22;6856;51.460;7.158;2022-12-13T09:08:23;-1.70;61.10
13569;DHT22;6856;51.460;7.158;2022-12-13T09:11:07;-1.80;61.60
13569;DHT22;6856;51.460;7.158;2022-12-13T09:14:04;-1.70;61.80
13569;DHT22;6856;51.460;7.158;2022-12-13T09:16:45;-1.60;61.50
13569;DHT22;6856;51.460;7.158;2022-12-13T09:19:30;-1.60;62.00
13569;DHT22;6856;51.460;7.158;2022-12-13T09:22:11;-1.60;62.40
13569;DHT22;6856;51.460;7.158;2022-12-13T09:24:45;-1.50;62.30
13569;DHT22;6856;51.460;7.158;2022-12-13T09:27:21;-1.50;62.10
13569;DHT22;6856;51.460;7.158;2022-12-13T09:29:59;-1.50;62.10
13569;DHT22;6856;51.460;7.158;2022-12-13T09:32:36;-1.40;62.50
13569;DHT22;6856;51.460;7.158;2022-12-13T09:35:10;-1.40;62.70
13569;DHT22;6856;51.460;7.158;2022-12-13T09:37:47;-1.30;62.40
13569;DHT22;6856;51.460;7.158;2022-12-13T09:40:27;-1.30;63.10
13569;DHT22;6856;51.460;7.158;2022-12-13T09:43:11;-1.20;63.40
13569;DHT22;6856;51.460;7.158;2022-12-13T09:45:54;-1.10;63.60
13569;DHT22;6856;51.460;7.158;2022-12-13T09:48:33;-1.10;63.60
13569;DHT22;6856;51.460;7.158;2022-12-13T09:51:08;-1.00;63.80
13569;DHT22;6856;51.460;7.158;2022-12-13T09:54:01;-0.90;63.60
13569;DHT22;6856;51.460;7.158;2022-12-13T09:56:37;-0.80;63.70
13569;DHT22;6856;51.460;7.158;2022-12-13T09:59:13;-0.80;64.10
13569;DHT22;6856;51.460;7.158;2022-12-13T10:01:46;-0.70;64.00
13569;DHT22;6856;51.460;7.158;2022-12-13T10:04:20;-0.60;64.40
13569;DHT22;6856;51.460;7.158;2022-12-13T10:06:55;-0.40;64.50
13569;DHT22;6856;51.460;7.158;2022-12-13T10:09:32;-0.40;64.90
13569;DHT22;6856;51.460;7.158;2022-12-13T10:12:10;-0.40;65.00
13569;DHT22;6856;51.460;7.158;2022-12-13T10:14:50;-0.20;65.00
13569;DHT22;6856;51.460;7.158;2022-12-13T10:17:35;-0.10;65.40
13569;DHT22;6856;51.460;7.158;2022-12-13T10:20:16;0.00;64.20
13569;DHT22;6856;51.460;7.158;2022-12-13T10:22:50;0.10;65.60
13569;DHT22;6856;51.460;7.158;2022-12-13T10:25:50;0.10;65.00
13569;DHT22;6856;51.460;7.158;2022-12-13T10:28:37;0.20;65.10
13569;DHT22;6856;51.460;7.158;2022-12-13T10:31:16;0.50;65.60
13569;DHT22;6856;51.460;7.158;2022-12-13T10:33:54;0.50;65.70
13569;DHT22;6856;51.460;7.158;2022-12-13T10:36:33;0.60;65.70
13569;DHT22;6856;51.460;7.158;2022-12-13T10:39:15;0.70;66.00
13569;DHT22;6856;51.460;7.158;2022-12-13T10:42:01;1.00;65.80
13569;DHT22;6856;51.460;7.158;2022-12-13T10:44:39;0.90;65.00
13569;DHT22;6856;51.460;7.158;2022-12-13T10:47:26;1.00;64.60
13569;DHT22;6856;51.460;7.158;2022-12-13T10:50:03;1.10;64.40
13569;DHT22;6856;51.460;7.158;2022-12-13T10:52:39;1.20;64.10
13569;DHT22;6856;51.460;7.158;2022-12-13T10:55:25;1.30;63.70
13569;DHT22;6856;51.460;7.158;2022-12-13T10:58:05;1.30;63.50
13569;DHT22;6856;51.460;7.158;2022-12-13T11:00:42;1.40;62.90
13569;DHT22;6856;51.460;7.158;2022-12-13T11:03:31;1.50;62.70
13569;DHT22;6856;51.460;7.158;2022-12-13T11:06:13;1.50;63.20
13569;DHT22;6856;51.460;7.158;2022-12-13T11:08:51;1.60;62.60
13569;DHT22;6856;51.460;7.158;2022-12-13T11:11:32;1.60;62.90
13569;DHT22;6856;51.460;7.158;2022-12-13T11:14:15;1.90;61.40
13569;DHT22;6856;51.460;7.158;2022-12-13T11:17:13;1.80;62.50
13569;DHT22;6856;51.460;7.158;2022-12-13T11:19:56;1.80;62.20
13569;DHT22;6856;51.460;7.158;2022-12-13T11:22:35;1.80;62.10
13569;DHT22;6856;51.460;7.158;2022-12-13T11:25:21;1.90;62.10
13569;DHT22;6856;51.460;7.158;2022-12-13T11:28:05;1.90;62.10
13569;DHT22;6856;51.460;7.158;2022-12-13T11:31:10;2.10;62.40
13569;DHT22;6856;51.460;7.158;2022-12-13T11:33:57;2.10;62.40
13569;DHT22;6856;51.460;7.158;2022-12-13T11:36:49;2.10;61.60
13569;DHT22;6856;51.460;7.158;2022-12-13T11:39:36;2.20;62.00
13569;DHT22;6856;51.460;7.158;2022-12-13T11:42:28;2.50;62.10
13569;DHT22;6856;51.460;7.158;2022-12-13T11:45:11;2.40;61.10
13569;DHT22;6856;51.460;7.158;2022-12-13T11:48:01;2.40;61.70
13569;DHT22;6856;51.460;7.158;2022-12-13T11:50:40;2.50;61.40
13569;DHT22;6856;51.460;7.158;2022-12-13T11:53:47;2.60;60.70
13569;DHT22;6856;51.460;7.158;2022-12-13T11:56:32;2.60;61.00
13569;DHT22;6856;51.460;7.158;2022-12-13T11:59:21;2.70;60.40
13569;DHT22;6856;51.460;7.158;2022-12-13T12:02:19;2.70;60.80
13569;DHT22;6856;51.460;7.158;2022-12-13T12:05:05;2.80;60.60
13569;DHT22;6856;51.460;7.158;2022-12-13T12:08:03;2.90;60.70
13569;DHT22;6856;51.460;7.158;2022-12-13T12:11:07;2.90;60.30
13569;DHT22;6856;51.460;7.158;2022-12-13T12:13:53;3.10;59.50
13569;DHT22;6856;51.460;7.158;2022-12-13T12:16:37;3.00;58.90
13569;DHT22;6856;51.460;7.158;2022-12-13T12:19:17;3.00;59.30
13569;DHT22;6856;51.460;7.158;2022-12-13T12:22:05;3.10;59.00
13569;DHT22;6856;51.460;7.158;2022-12-13T12:25:02;3.10;59.30
13569;DHT22;6856;51.460;7.158;2022-12-13T12:27:55;3.10;59.20
13569;DHT22;6856;51.460;7.158;2022-12-13T12:30:46;3.20;59.40
13569;DHT22;6856;51.460;7.158;2022-12-13T12:33:33;3.20;59.20
13569;DHT22;6856;51.460;7.158;2022-12-13T12:36:32;3.20;59.20
13569;DHT22;6856;51.460;7.158;2022-12-13T12:39:48;3.20;59.20
13569;DHT22;6856;51.460;7.158;2022-12-13T12:42:41;3.20;59.10
13569;DHT22;6856;51.460;7.158;2022-12-13T12:45:52;3.20;59.10
13569;DHT22;6856;51.460;7.158;2022-12-13T12:52:01;3.20;58.60
13569;DHT22;6856;51.460;7.158;2022-12-13T12:54:56;3.20;57.90
13569;DHT22;6856;51.460;7.158;2022-12-13T12:57:50;3.20;58.30
13569;DHT22;6856;51.460;7.158;2022-12-13T13:00:40;3.20;58.50
13569;DHT22;6856;51.460;7.158;2022-12-13T13:03:22;3.20;58.20
13569;DHT22;6856;51.460;7.158;2022-12-13T13:06:08;3.20;58.00
13569;DHT22;6856;51.460;7.158;2022-12-13T13:08:51;3.10;58.10
13569;DHT22;6856;51.460;7.158;2022-12-13T13:11:34;3.10;58.10
13569;DHT22;6856;51.460;7.158;2022-12-13T13:14:32;3.10;57.60
13569;DHT22;6856;51.460;7.158;2022-12-13T13:17:44;3.10;58.00
13569;DHT22;6856;51.460;7.158;2022-12-13T13:20:22;3.10;58.10
13569;DHT22;6856;51.460;7.158;2022-12-13T13:22:57;3.10;58.00
13569;DHT22;6856;51.460;7.158;2022-12-13T13:25:54;3.10;58.10
13569;DHT22;6856;51.460;7.158;2022-12-13T13:28:49;3.10;58.40
13569;DHT22;6856;51.460;7.158;2022-12-13T13:31:53;3.10;58.00
13569;DHT22;6856;51.460;7.158;2022-12-13T13:38:52;3.20;58.40
13569;DHT22;6856;51.460;7.158;2022-12-13T13:41:54;3.20;58.60
13569;DHT22;6856;51.460;7.158;2022-12-13T13:48:12;3.20;58.90
13569;DHT22;6856;51.460;7.158;2022-12-13T13:51:40;3.30;58.90
13569;DHT22;6856;51.460;7.158;2022-12-13T14:09:42;3.30;58.90
13569;DHT22;6856;51.460;7.158;2022-12-13T14:23:31;3.30;58.90
13569;DHT22;6856;51.460;7.158;2022-12-13T14:26:22;3.30;58.80
13569;DHT22;6856;51.460;7.158;2022-12-13T14:29:11;3.30;58.60
13569;DHT22;6856;51.460;7.158;2022-12-13T14:31:47;3.20;58.50
13569;DHT22;6856;51.460;7.158;2022-12-13T14:34:23;3.20;58.60
13569;DHT22;6856;51.460;7.158;2022-12-13T14:37:02;3.20;58.60
13569;DHT22;6856;51.460;7.158;2022-12-13T14:40:11;3.20;58.40
13569;DHT22;6856;51.460;7.158;2022-12-13T14:42:58;2.90;58.10
13569;DHT22;6856;51.460;7.158;2022-12-13T14:45:34;3.20;58.50
13569;DHT22;6856;51.460;7.158;2022-12-13T14:48:14;3.20;58.40
13569;DHT22;6856;51.460;7.158;2022-12-13T14:51:01;3.20;58.50
13569;DHT22;6856;51.460;7.158;2022-12-13T14:53:38;3.20;58.50
13569;DHT22;6856;51.460;7.158;2022-12-13T14:56:14;3.20;58.30
13569;DHT22;6856;51.460;7.158;2022-12-13T14:59:10;3.30;58.90
13569;DHT22;6856;51.460;7.158;2022-12-13T15:01:54;3.10;58.20
13569;DHT22;6856;51.460;7.158;2022-12-13T15:04:32;3.10;58.40
13569;DHT22;6856;51.460;7.158;2022-12-13T15:07:22;3.10;58.30
13569;DHT22;6856;51.460;7.158;2022-12-13T15:10:17;3.10;58.40
13569;DHT22;6856;51.460;7.158;2022-12-13T15:12:57;3.00;58.20
13569;DHT22;6856;51.460;7.158;2022-12-13T15:15:36;3.00;58.10
13569;DHT22;6856;51.460;7.158;2022-12-13T15:18:17;3.00;57.80
13569;DHT22;6856;51.460;7.158;2022-12-13T15:20:53;3.00;58.10
13569;DHT22;6856;51.460;7.158;2022-12-13T15:23:31;3.10;58.10
13569;DHT22;6856;51.460;7.158;2022-12-13T15:26:23;2.90;58.10
13569;DHT22;6856;51.460;7.158;2022-12-13T15:29:04;2.90;57.80
13569;DHT22;6856;51.460;7.158;2022-12-13T15:31:46;2.90;57.90
13569;DHT22;6856;51.460;7.158;2022-12-13T15:34:35;2.90;57.90
13569;DHT22;6856;51.460;7.158;2022-12-13T15:37:22;2.80;58.00
13569;DHT22;6856;51.460;7.158;2022-12-13T15:40:07;2.80;58.10
13569;DHT22;6856;51.460;7.158;2022-12-13T15:42:46;2.80;57.80
13569;DHT22;6856;51.460;7.158;2022-12-13T15:45:26;2.70;57.60
13569;DHT22;6856;51.460;7.158;2022-12-13T15:48:21;2.70;57.80
13569;DHT22;6856;51.460;7.158;2022-12-13T15:51:05;2.70;58.10
13569;DHT22;6856;51.460;7.158;2022-12-13T15:54:04;2.70;58.20
13569;DHT22;6856;51.460;7.158;2022-12-13T15:56:58;2.70;58.20
13569;DHT22;6856;51.460;7.158;2022-12-13T16:00:02;2.60;58.10
13569;DHT22;6856;51.460;7.158;2022-12-13T16:03:07;2.60;58.10
13569;DHT22;6856;51.460;7.158;2022-12-13T16:05:48;2.60;58.00
13569;DHT22;6856;51.460;7.158;2022-12-13T16:08:30;2.60;57.50
13569;DHT22;6856;51.460;7.158;2022-12-13T16:11:08;2.50;58.10
13569;DHT22;6856;51.460;7.158;2022-12-13T16:13:43;2.50;58.10
13569;DHT22;6856;51.460;7.158;2022-12-13T16:16:29;2.50;57.90
13569;DHT22;6856;51.460;7.158;2022-12-13T16:19:14;2.50;58.00
13569;DHT22;6856;51.460;7.158;2022-12-13T16:21:51;2.40;57.90
13569;DHT22;6856;51.460;7.158;2022-12-13T16:24:25;2.40;58.00
13569;DHT22;6856;51.460;7.158;2022-12-13T16:27:00;2.40;58.10
13569;DHT22;6856;51.460;7.158;2022-12-13T16:29:40;2.40;57.60
13569;DHT22;6856;51.460;7.158;2022-12-13T16:32:19;2.40;57.90
13569;DHT22;6856;51.460;7.158;2022-12-13T16:34:53;2.30;57.50
13569;DHT22;6856;51.460;7.158;2022-12-13T16:37:28;2.40;58.00
13569;DHT22;6856;51.460;7.158;2022-12-13T16:40:21;2.30;57.60
13569;DHT22;6856;51.460;7.158;2022-12-13T16:43:02;2.30;58.10
13569;DHT22;6856;51.460;7.158;2022-12-13T16:45:42;2.30;58.10
13569;DHT22;6856;51.460;7.158;2022-12-13T16:48:23;2.20;57.80
13569;DHT22;6856;51.460;7.158;2022-12-13T16:51:00;2.20;57.90
13569;DHT22;6856;51.460;7.158;2022-12-13T16:53:40;2.20;58.10
13569;DHT22;6856;51.460;7.158;2022-12-13T16:56:17;2.20;58.20
13569;DHT22;6856;51.460;7.158;2022-12-13T16:58:53;2.10;57.90
13569;DHT22;6856;51.460;7.158;2022-12-13T17:01:30;2.20;57.80
13569;DHT22;6856;51.460;7.158;2022-12-13T17:04:07;2.10;57.90
13569;DHT22;6856;51.460;7.158;2022-12-13T17:06:51;2.10;58.30
13569;DHT22;6856;51.460;7.158;2022-12-13T17:09:27;2.10;58.00
13569;DHT22;6856;51.460;7.158;2022-12-13T17:12:04;1.90;57.40
13569;DHT22;6856;51.460;7.158;2022-12-13T17:14:41;2.00;58.00
13569;DHT22;6856;51.460;7.158;2022-12-13T17:17:18;2.00;58.10
13569;DHT22;6856;51.460;7.158;2022-12-13T17:19:59;2.00;58.20
13569;DHT22;6856;51.460;7.158;2022-12-13T17:22:36;2.00;58.20
13569;DHT22;6856;51.460;7.158;2022-12-13T17:25:13;2.00;58.30
13569;DHT22;6856;51.460;7.158;2022-12-13T17:27:48;2.00;58.20
13569;DHT22;6856;51.460;7.158;2022-12-13T17:30:25;2.00;57.90
13569;DHT22;6856;51.460;7.158;2022-12-13T17:33:10;2.00;58.10
13569;DHT22;6856;51.460;7.158;2022-12-13T17:35:47;1.90;58.00
13569;DHT22;6856;51.460;7.158;2022-12-13T17:38:21;1.90;58.20
13569;DHT22;6856;51.460;7.158;2022-12-13T17:40:56;1.90;57.90
13569;DHT22;6856;51.460;7.158;2022-12-13T17:43:33;1.90;58.20
13569;DHT22;6856;51.460;7.158;2022-12-13T17:46:10;1.90;58.40
13569;DHT22;6856;51.460;7.158;2022-12-13T17:48:48;1.90;58.50
13569;DHT22;6856;51.460;7.158;2022-12-13T17:51:26;1.90;58.40
13569;DHT22;6856;51.460;7.158;2022-12-13T17:54:01;1.90;58.20
13569;DHT22;6856;51.460;7.158;2022-12-13T17:56:36;1.90;58.10
13569;DHT22;6856;51.460;7.158;2022-12-13T17:59:16;1.90;58.00
13569;DHT22;6856;51.460;7.158;2022-12-13T18:01:56;1.80;58.60
13569;DHT22;6856;51.460;7.158;2022-12-13T18:04:30;2.00;58.60